Terminal Aerodrome Forecast
Issued by NWS

Home | Current Version | Previous Version | Text Only | Print | Product List | Glossary On
Versions: 1 2 3 4 5 6 7 8 9 10 11 12 13 14 15 16 17 18
000
FTAK31 PAJN 282138 AAC
TAFAJN
TAF AMD
PAJN 282138Z 2822/2918 08015G21KT P6SM FEW080 BKN100 WS020/02030KT
     FM290000 24009KT P6SM SCT100
     FM290600 08004KT P6SM BKN100
     FM291400 VRB03KT P6SM SCT100=

USA.gov is the U.S. government's official web portal to all federal, state and local government web resources and services.